Time;durP1;ratioP1;P1;durP2;ratioP2;P2;SDS_P1;SDS_P2;PMS_P1;PMS_P2;Temp;Humidity;BMP_temperature;BMP_pressure;BME280_temperature;BME280_humidity;BME280_pressure;Samples;Min_cycle;Max_cycle;Signal;HPM_P1;HPM_P2
2022/10/14 00:00:59;;;;;;;12.95;6.53;;;;;;;;;;10536195;28;20050;-44
2022/10/14 00:06:03;;;;;;;8.98;6.35;;;;;;;;;;10536015;28;20024;-46
2022/10/14 00:11:07;;;;;;;9.68;6.07;;;;;;;;;;10535472;28;20040;-45
2022/10/14 00:16:14;;;;;;;8.68;5.53;;;;;;;;;;10535443;28;20036;-45
2022/10/14 00:21:14;;;;;;;14.75;6.25;;;;;;;;;;10535074;28;20026;-44
2022/10/14 00:26:15;;;;;;;10.68;5.75;;;;;;;;;;10535323;28;20032;-44
2022/10/14 00:31:15;;;;;;;6.88;5.35;;;;;;;;;;10534496;28;20674;-44
2022/10/14 00:36:17;;;;;;;13.43;6.20;;;;;;;;;;10534115;28;20032;-44
2022/10/14 00:41:23;;;;;;;9.25;5.68;;;;;;;;;;10534751;28;20028;-45
2022/10/14 00:46:24;;;;;;;7.65;5.88;;;;;;;;;;10533478;28;20032;-45
2022/10/14 00:51:25;;;;;;;7.50;5.00;;;;;;;;;;10533924;28;20046;-45
2022/10/14 00:56:27;;;;;;;8.77;5.40;;;;;;;;;;10533826;28;20039;-46
2022/10/14 01:01:27;;;;;;;10.15;4.80;;;;;;;;;;10533576;28;20047;-45
2022/10/14 01:06:43;;;;;;;8.10;4.80;;;;;;;;;;10533310;28;20026;-46
2022/10/14 01:11:43;;;;;;;7.13;5.10;;;;;;;;;;10533323;28;20031;-46
2022/10/14 01:17:06;;;;;;;7.82;5.53;;;;;;;;;;10533730;28;20035;-45
2022/10/14 01:22:15;;;;;;;8.98;5.28;;;;;;;;;;10533633;28;20498;-44
2022/10/14 01:27:18;;;;;;;10.07;5.18;;;;;;;;;;10533165;28;20136;-44
2022/10/14 01:32:22;;;;;;;9.18;4.78;;;;;;;;;;10532756;28;20056;-47
2022/10/14 01:37:25;;;;;;;6.78;4.10;;;;;;;;;;10533044;28;20024;-47
2022/10/14 01:42:27;;;;;;;8.75;4.93;;;;;;;;;;10533389;28;20043;-46
2022/10/14 01:47:29;;;;;;;6.82;4.60;;;;;;;;;;10532817;28;20036;-46
2022/10/14 01:52:35;;;;;;;6.25;4.50;;;;;;;;;;10540377;28;20035;-47
2022/10/14 01:57:37;;;;;;;6.70;4.75;;;;;;;;;;10540681;28;20024;-45
2022/10/14 02:02:39;;;;;;;6.85;4.40;;;;;;;;;;10540601;28;20016;-46
2022/10/14 02:07:41;;;;;;;4.90;4.18;;;;;;;;;;10540534;28;20430;-44
2022/10/14 02:12:42;;;;;;;7.05;4.32;;;;;;;;;;10540076;28;20444;-44
2022/10/14 02:17:47;;;;;;;5.82;3.88;;;;;;;;;;10540080;28;20047;-46
2022/10/14 02:22:50;;;;;;;7.35;4.30;;;;;;;;;;10540359;28;20028;-45
2022/10/14 02:27:51;;;;;;;9.25;4.57;;;;;;;;;;10539975;28;20100;-44
2022/10/14 02:32:51;;;;;;;4.88;4.18;;;;;;;;;;10538706;28;20050;-46
2022/10/14 02:37:52;;;;;;;7.13;4.55;;;;;;;;;;10539120;28;20111;-45
2022/10/14 02:42:53;;;;;;;5.68;4.40;;;;;;;;;;10539533;28;20356;-46
2022/10/14 02:47:53;;;;;;;8.38;4.10;;;;;;;;;;10539373;28;20024;-44
2022/10/14 02:52:53;;;;;;;5.35;4.18;;;;;;;;;;10538951;28;20036;-45
2022/10/14 02:57:54;;;;;;;4.25;3.70;;;;;;;;;;10538439;28;20032;-44
2022/10/14 03:02:54;;;;;;;5.70;4.27;;;;;;;;;;10538616;28;20039;-46
2022/10/14 03:07:54;;;;;;;7.07;4.63;;;;;;;;;;10539112;28;21091;-46
2022/10/14 03:12:55;;;;;;;4.63;4.10;;;;;;;;;;10538818;28;20030;-47
2022/10/14 03:17:55;;;;;;;5.70;4.07;;;;;;;;;;10537591;28;20024;-46
2022/10/14 03:22:55;;;;;;;6.80;4.15;;;;;;;;;;10537928;28;20055;-44
2022/10/14 03:27:55;;;;;;;7.38;3.88;;;;;;;;;;10537504;28;20045;-47
2022/10/14 03:32:56;;;;;;;8.25;3.88;;;;;;;;;;10536862;28;20121;-44
2022/10/14 03:37:58;;;;;;;4.43;3.60;;;;;;;;;;10537909;28;20024;-46
2022/10/14 03:43:00;;;;;;;5.10;3.85;;;;;;;;;;10537216;28;20047;-44
2022/10/14 03:48:00;;;;;;;8.20;3.85;;;;;;;;;;10536402;28;20024;-44
2022/10/14 03:53:00;;;;;;;5.78;3.80;;;;;;;;;;10536518;28;20028;-45
2022/10/14 03:58:00;;;;;;;5.60;3.90;;;;;;;;;;10536820;28;20082;-47
2022/10/14 04:03:01;;;;;;;5.25;3.70;;;;;;;;;;10536119;28;20383;-45
2022/10/14 04:08:01;;;;;;;5.20;3.88;;;;;;;;;;10536343;28;20028;-46
2022/10/14 04:13:02;;;;;;;4.80;3.60;;;;;;;;;;10535821;28;20122;-45
2022/10/14 04:18:02;;;;;;;3.85;3.25;;;;;;;;;;10535826;28;20032;-45
2022/10/14 04:23:03;;;;;;;4.75;3.78;;;;;;;;;;10534967;28;20395;-48
2022/10/14 04:28:03;;;;;;;5.22;3.60;;;;;;;;;;10535484;28;20345;-49
2022/10/14 04:33:03;;;;;;;3.90;3.50;;;;;;;;;;10534288;28;20135;-44
2022/10/14 04:38:04;;;;;;;4.15;3.75;;;;;;;;;;10534511;28;20463;-45
2022/10/14 04:43:04;;;;;;;6.13;3.58;;;;;;;;;;10532999;28;20093;-45
2022/10/14 04:48:04;;;;;;;3.83;3.42;;;;;;;;;;10533754;28;20024;-46
2022/10/14 04:53:05;;;;;;;4.88;3.55;;;;;;;;;;10533441;28;20110;-46
2022/10/14 04:58:05;;;;;;;4.80;3.53;;;;;;;;;;10533523;28;20027;-44
2022/10/14 05:03:05;;;;;;;3.27;2.97;;;;;;;;;;10534092;28;20039;-48
2022/10/14 05:08:06;;;;;;;4.07;3.17;;;;;;;;;;10533690;28;20115;-46
2022/10/14 05:13:06;;;;;;;3.87;3.30;;;;;;;;;;10534450;28;20035;-47
2022/10/14 05:18:08;;;;;;;4.20;3.37;;;;;;;;;;10534034;28;20035;-45
2022/10/14 05:23:08;;;;;;;4.05;2.97;;;;;;;;;;10533335;28;20489;-44
2022/10/14 05:28:08;;;;;;;3.22;2.92;;;;;;;;;;10541834;28;20067;-47
2022/10/14 05:33:09;;;;;;;4.05;3.22;;;;;;;;;;10541384;28;20044;-51
2022/10/14 05:38:11;;;;;;;4.90;3.13;;;;;;;;;;10542053;28;20157;-49
2022/10/14 05:43:11;;;;;;;9.63;3.80;;;;;;;;;;10541729;28;20433;-47
2022/10/14 05:48:11;;;;;;;4.88;3.40;;;;;;;;;;10541497;28;20028;-46
2022/10/14 05:53:11;;;;;;;6.72;4.53;;;;;;;;;;10540835;28;20221;-46
2022/10/14 05:58:12;;;;;;;11.77;4.50;;;;;;;;;;10541081;28;20039;-48
2022/10/14 06:03:12;;;;;;;8.27;4.68;;;;;;;;;;10540546;28;20032;-46
2022/10/14 06:08:13;;;;;;;9.68;3.90;;;;;;;;;;10539609;28;20476;-50
2022/10/14 06:13:13;;;;;;;11.40;4.72;;;;;;;;;;10540488;28;20038;-47
2022/10/14 06:18:13;;;;;;;9.43;4.47;;;;;;;;;;10539904;28;20468;-50
2022/10/14 06:23:13;;;;;;;11.00;4.68;;;;;;;;;;10539645;28;20028;-50
2022/10/14 06:28:14;;;;;;;13.50;5.00;;;;;;;;;;10540085;28;20074;-48
2022/10/14 06:33:14;;;;;;;7.93;4.97;;;;;;;;;;10539042;28;20040;-46
2022/10/14 06:38:14;;;;;;;11.52;5.05;;;;;;;;;;10539228;28;20067;-46
2022/10/14 06:43:14;;;;;;;6.53;4.30;;;;;;;;;;10538967;28;20080;-47
2022/10/14 06:48:15;;;;;;;6.32;4.40;;;;;;;;;;10539241;28;20032;-52
2022/10/14 06:53:15;;;;;;;8.17;4.57;;;;;;;;;;10538686;28;20466;-46
2022/10/14 06:58:15;;;;;;;8.97;4.63;;;;;;;;;;10538678;28;20058;-46
2022/10/14 07:03:16;;;;;;;7.90;4.50;;;;;;;;;;10538247;28;20028;-48
2022/10/14 07:08:16;;;;;;;6.43;5.00;;;;;;;;;;10538014;28;20020;-47
2022/10/14 07:13:16;;;;;;;6.63;4.53;;;;;;;;;;10538171;28;20085;-47
2022/10/14 07:18:17;;;;;;;7.40;4.78;;;;;;;;;;10537317;28;20046;-48
2022/10/14 07:23:17;;;;;;;5.88;4.03;;;;;;;;;;10537461;28;20028;-49
2022/10/14 07:28:17;;;;;;;7.35;4.30;;;;;;;;;;10537521;28;20034;-47
2022/10/14 07:33:18;;;;;;;7.07;4.03;;;;;;;;;;10536475;28;20054;-47
2022/10/14 07:38:18;;;;;;;10.18;5.00;;;;;;;;;;10536704;28;20032;-53
2022/10/14 07:43:18;;;;;;;6.30;4.57;;;;;;;;;;10536374;28;20024;-48
2022/10/14 07:48:19;;;;;;;6.07;4.25;;;;;;;;;;10535386;28;20028;-50
2022/10/14 07:53:19;;;;;;;5.57;4.10;;;;;;;;;;10536049;28;20073;-50
2022/10/14 07:58:20;;;;;;;5.90;4.23;;;;;;;;;;10536182;28;20069;-48
2022/10/14 08:03:21;;;;;;;5.43;4.28;;;;;;;;;;10535759;28;20035;-47
2022/10/14 08:08:23;;;;;;;8.88;4.60;;;;;;;;;;10535998;28;20032;-47
2022/10/14 08:13:23;;;;;;;9.02;4.72;;;;;;;;;;10535839;28;20085;-49
2022/10/14 08:18:24;;;;;;;7.78;4.30;;;;;;;;;;10534985;28;20093;-47
2022/10/14 08:23:25;;;;;;;8.38;5.00;;;;;;;;;;10535124;28;20024;-55
2022/10/14 08:28:25;;;;;;;9.93;4.20;;;;;;;;;;10535068;28;20028;-47
2022/10/14 08:33:26;;;;;;;8.40;4.22;;;;;;;;;;10534421;28;20043;-47
2022/10/14 08:38:27;;;;;;;6.55;4.05;;;;;;;;;;10534497;28;20031;-46
2022/10/14 08:43:46;;;;;;;5.50;4.47;;;;;;;;;;10534745;28;20035;-50
2022/10/14 08:48:49;;;;;;;6.45;4.50;;;;;;;;;;10534192;28;20131;-46
2022/10/14 08:53:52;;;;;;;14.82;3.95;;;;;;;;;;10534194;28;20028;-49
2022/10/14 08:58:54;;;;;;;7.63;4.35;;;;;;;;;;10533356;28;20452;-51
2022/10/14 09:04:00;;;;;;;7.50;4.60;;;;;;;;;;10532826;28;20044;-51
2022/10/14 09:09:10;;;;;;;7.10;4.22;;;;;;;;;;10533955;28;20024;-58
2022/10/14 09:14:17;;;;;;;12.00;4.70;;;;;;;;;;10533207;28;20127;-47
2022/10/14 09:19:20;;;;;;;8.32;4.45;;;;;;;;;;10532957;28;20472;-51
2022/10/14 09:24:25;;;;;;;8.32;4.45;;;;;;;;;;10533417;28;20024;-53
2022/10/14 09:29:26;;;;;;;6.72;5.55;;;;;;;;;;10532512;28;20123;-47
2022/10/14 09:34:30;;;;;;;6.40;4.70;;;;;;;;;;10532558;28;20040;-53
2022/10/14 09:39:32;;;;;;;5.47;4.47;;;;;;;;;;10532517;28;20578;-48
2022/10/14 09:44:33;;;;;;;6.60;4.68;;;;;;;;;;10532346;28;20032;-52
2022/10/14 09:49:41;;;;;;;6.80;5.15;;;;;;;;;;10533174;28;20039;-46
2022/10/14 09:54:41;;;;;;;7.53;4.78;;;;;;;;;;10532453;28;20391;-47
2022/10/14 09:59:56;;;;;;;5.60;4.70;;;;;;;;;;10532747;28;20051;-54
2022/10/14 10:04:57;;;;;;;6.35;4.80;;;;;;;;;;10532867;28;20025;-47
2022/10/14 10:09:58;;;;;;;7.35;4.85;;;;;;;;;;10534309;28;20023;-46
2022/10/14 10:15:02;;;;;;;7.00;4.80;;;;;;;;;;10539182;28;20122;-56
2022/10/14 10:20:08;;;;;;;5.82;4.65;;;;;;;;;;10537718;28;20028;-49
2022/10/14 10:25:08;;;;;;;6.32;4.85;;;;;;;;;;10539089;28;20387;-50
2022/10/14 10:30:12;;;;;;;5.78;4.38;;;;;;;;;;10539328;28;20046;-49
2022/10/14 10:35:18;;;;;;;7.05;4.72;;;;;;;;;;10540106;28;20051;-46
2022/10/14 10:40:33;;;;;;;6.38;4.47;;;;;;;;;;10539205;28;20446;-51
2022/10/14 10:45:35;;;;;;;7.70;4.75;;;;;;;;;;10537551;28;20027;-46
2022/10/14 10:50:41;;;;;;;6.57;4.47;;;;;;;;;;10538894;28;20035;-47
2022/10/14 10:55:52;;;;;;;8.00;4.60;;;;;;;;;;10538075;28;20032;-53
2022/10/14 11:00:52;;;;;;;10.00;5.22;;;;;;;;;;10537989;28;20081;-49
2022/10/14 11:06:01;;;;;;;6.80;5.10;;;;;;;;;;10538413;28;20471;-49
2022/10/14 11:16:34;;;;;;;6.95;5.32;;;;;;;;;;10537444;28;20040;-50
2022/10/14 11:21:49;;;;;;;7.57;4.80;;;;;;;;;;10536128;28;20052;-49
2022/10/14 11:26:55;;;;;;;6.53;5.00;;;;;;;;;;10537609;28;20023;-48
2022/10/14 11:31:58;;;;;;;5.65;4.60;;;;;;;;;;10536661;28;20391;-49
2022/10/14 11:37:14;;;;;;;7.55;5.18;;;;;;;;;;10536670;28;20053;-47
2022/10/14 11:42:34;;;;;;;6.60;4.97;;;;;;;;;;10535812;28;20481;-49
2022/10/14 11:47:35;;;;;;;5.70;4.55;;;;;;;;;;10535717;28;20084;-46
2022/10/14 11:52:45;;;;;;;6.10;4.50;;;;;;;;;;10536720;28;20379;-52
2022/10/14 11:57:52;;;;;;;7.35;5.15;;;;;;;;;;10536369;28;20130;-45
2022/10/14 12:03:08;;;;;;;10.98;4.40;;;;;;;;;;10536186;28;20043;-47
2022/10/14 12:08:21;;;;;;;7.78;5.07;;;;;;;;;;10535157;28;20028;-46
2022/10/14 12:13:25;;;;;;;6.75;4.53;;;;;;;;;;10535036;28;20040;-60
2022/10/14 12:18:27;;;;;;;8.02;4.72;;;;;;;;;;10535169;28;20028;-60
2022/10/14 12:23:33;;;;;;;10.15;5.15;;;;;;;;;;10534939;28;20132;-58
2022/10/14 12:28:36;;;;;;;6.55;4.50;;;;;;;;;;10534052;28;20416;-57
2022/10/14 12:33:56;;;;;;;5.97;4.75;;;;;;;;;;10532287;28;20371;-51
2022/10/14 12:39:23;;;;;;;6.72;4.72;;;;;;;;;;10533396;28;20035;-58
2022/10/14 12:44:28;;;;;;;5.60;4.70;;;;;;;;;;10533242;28;20397;-56
2022/10/14 12:49:32;;;;;;;6.13;4.68;;;;;;;;;;10533098;28;20020;-56
2022/10/14 12:54:34;;;;;;;5.85;4.78;;;;;;;;;;10532440;28;20035;-52
2022/10/14 12:59:36;;;;;;;7.18;4.85;;;;;;;;;;10532404;28;20028;-54
2022/10/14 13:04:36;;;;;;;6.05;4.80;;;;;;;;;;10533098;28;20103;-45
2022/10/14 13:09:37;;;;;;;7.10;4.65;;;;;;;;;;10533135;28;20103;-49
2022/10/14 13:14:57;;;;;;;5.88;4.70;;;;;;;;;;10533447;28;20035;-45
2022/10/14 13:19:57;;;;;;;6.10;4.72;;;;;;;;;;10532190;28;20024;-44
2022/10/14 13:25:18;;;;;;;6.70;5.07;;;;;;;;;;10533080;28;20028;-45
2022/10/14 13:30:32;;;;;;;9.07;5.00;;;;;;;;;;10531796;28;20078;-47
2022/10/14 13:35:41;;;;;;;5.35;4.40;;;;;;;;;;10530052;28;20387;-45
2022/10/14 13:40:45;;;;;;;7.20;4.70;;;;;;;;;;10530530;28;20024;-47
2022/10/14 13:45:47;;;;;;;5.55;4.50;;;;;;;;;;10533848;28;20051;-46
2022/10/14 13:50:50;;;;;;;7.07;4.82;;;;;;;;;;10541090;28;20047;-45
2022/10/14 13:55:51;;;;;;;6.97;4.78;;;;;;;;;;10540489;28;20058;-47
2022/10/14 14:00:56;;;;;;;8.23;5.20;;;;;;;;;;10540342;28;20035;-46
2022/10/14 14:05:57;;;;;;;7.22;5.20;;;;;;;;;;10540535;28;20081;-47
2022/10/14 14:11:01;;;;;;;10.50;5.68;;;;;;;;;;10540088;28;20081;-46
2022/10/14 14:16:01;;;;;;;7.45;5.38;;;;;;;;;;10539809;28;20028;-57
2022/10/14 14:21:02;;;;;;;8.82;5.35;;;;;;;;;;10539536;28;20478;-45
2022/10/14 14:26:02;;;;;;;9.50;6.45;;;;;;;;;;10540028;28;20497;-45
2022/10/14 14:31:02;;;;;;;10.25;6.07;;;;;;;;;;10539331;28;20426;-50
2022/10/14 14:36:04;;;;;;;8.50;5.33;;;;;;;;;;10538966;28;20054;-49
2022/10/14 14:41:20;;;;;;;12.65;6.00;;;;;;;;;;10539564;28;20547;-46
2022/10/14 14:46:36;;;;;;;12.98;6.35;;;;;;;;;;10539467;28;20031;-49
2022/10/14 14:51:38;;;;;;;21.48;7.30;;;;;;;;;;10538093;28;20023;-50
2022/10/14 14:56:40;;;;;;;20.23;7.25;;;;;;;;;;10537919;28;20063;-50
2022/10/14 15:01:41;;;;;;;15.23;7.10;;;;;;;;;;10537826;28;20498;-53
2022/10/14 15:06:47;;;;;;;14.77;7.38;;;;;;;;;;10537483;28;20023;-50
2022/10/14 15:11:49;;;;;;;17.30;7.68;;;;;;;;;;10537216;28;20031;-48
2022/10/14 15:16:53;;;;;;;16.23;7.65;;;;;;;;;;10537471;28;20483;-46
2022/10/14 15:22:12;;;;;;;23.92;7.82;;;;;;;;;;10537584;28;20032;-46
2022/10/14 15:27:30;;;;;;;19.40;8.73;;;;;;;;;;10537350;28;20020;-49
2022/10/14 15:32:31;;;;;;;14.18;7.97;;;;;;;;;;10536769;28;20078;-47
2022/10/14 15:37:31;;;;;;;21.50;8.35;;;;;;;;;;10536728;28;20050;-48
2022/10/14 15:42:31;;;;;;;19.20;9.52;;;;;;;;;;10536009;28;20038;-48
2022/10/14 15:47:32;;;;;;;18.67;9.25;;;;;;;;;;10536131;28;20028;-46
2022/10/14 15:52:32;;;;;;;16.10;9.10;;;;;;;;;;10535528;28;20022;-46
2022/10/14 15:57:32;;;;;;;15.13;9.23;;;;;;;;;;10535256;28;20051;-45
2022/10/14 16:02:34;;;;;;;22.20;9.17;;;;;;;;;;10535419;28;20031;-45
2022/10/14 16:07:34;;;;;;;20.98;9.85;;;;;;;;;;10535287;28;20104;-48
2022/10/14 16:12:34;;;;;;;15.93;9.35;;;;;;;;;;10534901;28;20496;-51
2022/10/14 16:17:35;;;;;;;17.50;9.13;;;;;;;;;;10534940;28;20278;-59
2022/10/14 16:22:36;;;;;;;17.17;9.82;;;;;;;;;;10534479;28;20593;-47
2022/10/14 16:27:36;;;;;;;19.42;8.93;;;;;;;;;;10534867;28;20516;-46
2022/10/14 16:32:36;;;;;;;15.48;8.50;;;;;;;;;;10534028;28;20044;-53
2022/10/14 16:37:37;;;;;;;16.63;9.02;;;;;;;;;;10534435;28;20047;-45
2022/10/14 16:42:37;;;;;;;12.93;8.43;;;;;;;;;;10533534;28;20028;-47
2022/10/14 16:47:39;;;;;;;17.02;9.05;;;;;;;;;;10533445;28;20032;-53
2022/10/14 16:57:58;;;;;;;14.95;8.65;;;;;;;;;;10534493;28;20036;-47
2022/10/14 17:03:00;;;;;;;12.20;8.23;;;;;;;;;;10533812;28;20415;-46
2022/10/14 17:08:01;;;;;;;11.75;7.68;;;;;;;;;;10533816;28;20036;-45
2022/10/14 17:13:01;;;;;;;11.82;8.55;;;;;;;;;;10533859;28;20666;-45
2022/10/14 17:18:01;;;;;;;14.57;8.40;;;;;;;;;;10531000;28;20375;-45
2022/10/14 17:23:04;;;;;;;13.60;7.57;;;;;;;;;;10528921;28;20051;-45
2022/10/14 17:28:04;;;;;;;14.68;7.85;;;;;;;;;;10532028;28;20032;-46
2022/10/14 17:33:04;;;;;;;13.27;7.43;;;;;;;;;;10530095;28;20438;-46
2022/10/14 17:38:06;;;;;;;12.52;7.72;;;;;;;;;;10531456;28;20107;-45
2022/10/14 17:43:07;;;;;;;12.07;7.95;;;;;;;;;;10531425;28;20031;-45
2022/10/14 17:48:07;;;;;;;14.52;9.13;;;;;;;;;;10533084;28;20024;-44
2022/10/14 17:53:10;;;;;;;9.85;7.43;;;;;;;;;;10531909;28;20036;-46
2022/10/14 17:58:10;;;;;;;14.20;8.88;;;;;;;;;;10531979;28;20155;-45
2022/10/14 18:03:11;;;;;;;13.90;7.80;;;;;;;;;;10532683;28;20163;-46
2022/10/14 18:08:12;;;;;;;13.23;7.97;;;;;;;;;;10532296;28;20117;-47
2022/10/14 18:13:13;;;;;;;13.80;8.40;;;;;;;;;;10530638;28;20479;-45
2022/10/14 18:18:13;;;;;;;10.63;7.88;;;;;;;;;;10531980;28;20039;-47
2022/10/14 18:23:13;;;;;;;14.45;7.47;;;;;;;;;;10531905;28;20091;-46
2022/10/14 18:28:20;;;;;;;12.02;8.50;;;;;;;;;;10531185;28;20404;-46
2022/10/14 18:33:20;;;;;;;12.05;8.05;;;;;;;;;;10535564;28;20044;-50
2022/10/14 18:38:20;;;;;;;18.73;8.30;;;;;;;;;;10538036;28;20119;-47
2022/10/14 18:43:20;;;;;;;16.38;8.55;;;;;;;;;;10539003;28;20028;-48
2022/10/14 18:48:21;;;;;;;17.80;8.75;;;;;;;;;;10538103;28;20110;-46
2022/10/14 18:53:21;;;;;;;16.23;8.70;;;;;;;;;;10538044;28;20036;-48
2022/10/14 18:58:21;;;;;;;20.20;9.25;;;;;;;;;;10538498;28;20056;-47
2022/10/14 19:03:22;;;;;;;18.88;10.05;;;;;;;;;;10538515;28;20032;-51
2022/10/14 19:08:23;;;;;;;13.32;9.65;;;;;;;;;;10536170;28;20459;-51
2022/10/14 19:13:25;;;;;;;14.80;9.90;;;;;;;;;;10537835;28;20097;-47
2022/10/14 19:18:25;;;;;;;21.08;10.85;;;;;;;;;;10537786;28;20028;-47
2022/10/14 19:23:25;;;;;;;22.80;11.55;;;;;;;;;;10537066;28;20528;-45
2022/10/14 19:28:26;;;;;;;17.95;11.75;;;;;;;;;;10537460;28;20033;-47
2022/10/14 19:33:26;;;;;;;19.02;11.85;;;;;;;;;;10536647;28;20028;-49
2022/10/14 19:38:26;;;;;;;17.35;11.18;;;;;;;;;;10535914;28;20056;-46
2022/10/14 19:43:27;;;;;;;16.63;11.60;;;;;;;;;;10534949;28;20039;-47
2022/10/14 19:48:27;;;;;;;13.40;10.85;;;;;;;;;;10536359;28;20407;-47
2022/10/14 19:53:27;;;;;;;17.67;11.52;;;;;;;;;;10535431;28;20028;-47
2022/10/14 19:58:28;;;;;;;16.02;10.75;;;;;;;;;;10536436;28;20039;-46
2022/10/14 20:03:28;;;;;;;18.60;11.45;;;;;;;;;;10535852;28;20495;-47
2022/10/14 20:08:28;;;;;;;21.23;10.93;;;;;;;;;;10535362;28;20107;-47
2022/10/14 20:13:29;;;;;;;19.57;10.43;;;;;;;;;;10536009;28;20544;-47
2022/10/14 20:18:29;;;;;;;15.23;10.65;;;;;;;;;;10535671;28;20028;-50
2022/10/14 20:23:31;;;;;;;14.07;10.30;;;;;;;;;;10535943;28;20456;-46
2022/10/14 20:28:35;;;;;;;16.92;10.07;;;;;;;;;;10534265;28;20498;-48
2022/10/14 20:33:36;;;;;;;19.52;9.75;;;;;;;;;;10535143;28;20460;-47
2022/10/14 20:38:36;;;;;;;14.88;9.20;;;;;;;;;;10534560;28;20039;-48
2022/10/14 20:43:37;;;;;;;17.50;10.00;;;;;;;;;;10534093;28;20053;-47
2022/10/14 20:48:38;;;;;;;13.00;8.98;;;;;;;;;;10534443;28;20122;-49
2022/10/14 20:53:38;;;;;;;16.13;9.87;;;;;;;;;;10533679;28;20024;-47
2022/10/14 20:58:38;;;;;;;12.03;9.00;;;;;;;;;;10533650;28;20073;-50
2022/10/14 21:03:39;;;;;;;14.67;9.27;;;;;;;;;;10533466;28;20063;-47
2022/10/14 21:08:40;;;;;;;14.80;9.77;;;;;;;;;;10533575;28;20035;-47
2022/10/14 21:13:44;;;;;;;15.88;9.82;;;;;;;;;;10533457;28;20028;-45
2022/10/14 21:18:46;;;;;;;13.50;9.88;;;;;;;;;;10532831;28;20064;-46
2022/10/14 21:23:46;;;;;;;13.02;8.75;;;;;;;;;;10533079;28;20027;-47
2022/10/14 21:28:46;;;;;;;19.70;9.53;;;;;;;;;;10532867;28;20051;-46
2022/10/14 21:33:47;;;;;;;11.63;9.13;;;;;;;;;;10533027;28;20032;-46
2022/10/14 21:38:48;;;;;;;13.35;9.55;;;;;;;;;;10532942;28;20063;-47
2022/10/14 21:43:48;;;;;;;13.23;9.55;;;;;;;;;;10532597;28;20059;-47
2022/10/14 21:48:52;;;;;;;13.98;9.70;;;;;;;;;;10533128;28;20031;-46
2022/10/14 21:53:52;;;;;;;13.27;9.23;;;;;;;;;;10531231;28;20383;-47
2022/10/14 21:58:52;;;;;;;12.98;9.93;;;;;;;;;;10531640;28;20031;-48
2022/10/14 22:03:54;;;;;;;14.13;9.45;;;;;;;;;;10532357;28;20028;-47
2022/10/14 22:08:55;;;;;;;15.88;9.73;;;;;;;;;;10537575;28;20490;-46
2022/10/14 22:13:56;;;;;;;14.65;9.27;;;;;;;;;;10538487;28;20077;-48
2022/10/14 22:18:58;;;;;;;12.15;9.65;;;;;;;;;;10539632;28;20032;-48
2022/10/14 22:23:58;;;;;;;15.57;9.40;;;;;;;;;;10540261;28;20020;-46
2022/10/14 22:29:03;;;;;;;14.65;9.05;;;;;;;;;;10539352;28;20107;-47
2022/10/14 22:34:04;;;;;;;15.88;10.10;;;;;;;;;;10538715;28;20035;-47
2022/10/14 22:39:06;;;;;;;17.75;9.23;;;;;;;;;;10537115;28;20020;-47
2022/10/14 22:44:08;;;;;;;17.63;9.40;;;;;;;;;;10538749;28;20032;-49
2022/10/14 22:49:08;;;;;;;16.15;9.35;;;;;;;;;;10539497;28;20034;-45
2022/10/14 22:54:09;;;;;;;14.63;9.07;;;;;;;;;;10538442;28;20032;-47
2022/10/14 22:59:10;;;;;;;16.45;9.32;;;;;;;;;;10538768;28;20024;-46
2022/10/14 23:04:10;;;;;;;12.55;8.55;;;;;;;;;;10537683;28;20024;-47
2022/10/14 23:09:11;;;;;;;17.33;8.70;;;;;;;;;;10537802;28;20035;-46
2022/10/14 23:14:11;;;;;;;12.37;8.87;;;;;;;;;;10538284;28;20152;-47
2022/10/14 23:19:11;;;;;;;14.50;9.10;;;;;;;;;;10537776;28;20028;-46
2022/10/14 23:24:11;;;;;;;10.90;8.80;;;;;;;;;;10537411;28;20113;-46
2022/10/14 23:29:12;;;;;;;13.25;8.80;;;;;;;;;;10537083;28;20036;-46
2022/10/14 23:34:12;;;;;;;12.27;8.90;;;;;;;;;;10537377;28;20281;-47
2022/10/14 23:39:13;;;;;;;14.70;9.52;;;;;;;;;;10537420;28;20119;-46
2022/10/14 23:44:14;;;;;;;13.50;8.93;;;;;;;;;;10536686;28;20149;-47
2022/10/14 23:49:14;;;;;;;12.20;8.55;;;;;;;;;;10536197;28;20109;-47
2022/10/14 23:54:14;;;;;;;13.00;9.37;;;;;;;;;;10536635;28;20024;-47
2022/10/14 23:59:15;;;;;;;11.95;9.30;;;;;;;;;;10536585;28;20746;-47
